sensor_id;sensor_type;location;lat;lon;timestamp;P1;durP1;ratioP1;P2;durP2;ratioP2
28988;SDS011;16089;59.952;10.818;2024-01-30T00:01:00;11.95;;;1.17;;
28988;SDS011;16089;59.952;10.818;2024-01-30T00:03:27;8.15;;;1.02;;
28988;SDS011;16089;59.952;10.818;2024-01-30T00:05:54;11.15;;;1.50;;
28988;SDS011;16089;59.952;10.818;2024-01-30T00:08:21;6.40;;;1.00;;
28988;SDS011;16089;59.952;10.818;2024-01-30T00:10:48;10.20;;;1.23;;
28988;SDS011;16089;59.952;10.818;2024-01-30T00:13:15;7.88;;;1.77;;
28988;SDS011;16089;59.952;10.818;2024-01-30T00:15:44;11.57;;;1.30;;
28988;SDS011;16089;59.952;10.818;2024-01-30T00:18:10;10.82;;;1.30;;
28988;SDS011;16089;59.952;10.818;2024-01-30T00:20:37;13.07;;;1.13;;
28988;SDS011;16089;59.952;10.818;2024-01-30T00:23:03;8.65;;;1.17;;
28988;SDS011;16089;59.952;10.818;2024-01-30T00:25:30;10.45;;;2.28;;
28988;SDS011;16089;59.952;10.818;2024-01-30T00:27:59;11.95;;;1.13;;
28988;SDS011;16089;59.952;10.818;2024-01-30T00:30:26;8.35;;;1.15;;
28988;SDS011;16089;59.952;10.818;2024-01-30T00:32:53;9.68;;;0.90;;
28988;SDS011;16089;59.952;10.818;2024-01-30T00:35:19;11.35;;;1.10;;
28988;SDS011;16089;59.952;10.818;2024-01-30T00:37:47;11.20;;;1.10;;
28988;SDS011;16089;59.952;10.818;2024-01-30T00:40:13;8.18;;;1.52;;
28988;SDS011;16089;59.952;10.818;2024-01-30T00:42:40;11.82;;;1.35;;
28988;SDS011;16089;59.952;10.818;2024-01-30T00:45:12;11.25;;;1.67;;
28988;SDS011;16089;59.952;10.818;2024-01-30T00:47:39;7.70;;;1.52;;
28988;SDS011;16089;59.952;10.818;2024-01-30T00:50:06;9.00;;;1.02;;
28988;SDS011;16089;59.952;10.818;2024-01-30T00:52:32;8.90;;;0.90;;
28988;SDS011;16089;59.952;10.818;2024-01-30T00:54:59;10.77;;;1.45;;
28988;SDS011;16089;59.952;10.818;2024-01-30T00:57:25;9.85;;;0.90;;
28988;SDS011;16089;59.952;10.818;2024-01-30T00:59:52;13.23;;;1.65;;
28988;SDS011;16089;59.952;10.818;2024-01-30T01:02:19;6.63;;;1.08;;
28988;SDS011;16089;59.952;10.818;2024-01-30T01:04:46;7.45;;;0.95;;
28988;SDS011;16089;59.952;10.818;2024-01-30T01:07:12;9.45;;;1.65;;
28988;SDS011;16089;59.952;10.818;2024-01-30T01:09:39;8.13;;;1.00;;
28988;SDS011;16089;59.952;10.818;2024-01-30T01:12:06;7.32;;;1.02;;
28988;SDS011;16089;59.952;10.818;2024-01-30T01:14:32;10.05;;;1.52;;
28988;SDS011;16089;59.952;10.818;2024-01-30T01:16:59;8.60;;;0.93;;
28988;SDS011;16089;59.952;10.818;2024-01-30T01:19:26;6.18;;;0.95;;
28988;SDS011;16089;59.952;10.818;2024-01-30T01:21:53;10.85;;;1.63;;
28988;SDS011;16089;59.952;10.818;2024-01-30T01:24:19;6.85;;;1.15;;
28988;SDS011;16089;59.952;10.818;2024-01-30T01:26:46;10.45;;;1.08;;
28988;SDS011;16089;59.952;10.818;2024-01-30T01:29:12;9.52;;;1.25;;
28988;SDS011;16089;59.952;10.818;2024-01-30T01:31:40;8.73;;;0.90;;
28988;SDS011;16089;59.952;10.818;2024-01-30T01:34:08;11.52;;;1.13;;
28988;SDS011;16089;59.952;10.818;2024-01-30T01:36:36;12.38;;;1.27;;
28988;SDS011;16089;59.952;10.818;2024-01-30T01:39:03;12.00;;;1.23;;
28988;SDS011;16089;59.952;10.818;2024-01-30T01:41:29;8.73;;;1.65;;
28988;SDS011;16089;59.952;10.818;2024-01-30T01:43:56;10.32;;;1.35;;
28988;SDS011;16089;59.952;10.818;2024-01-30T01:46:22;12.60;;;1.63;;
28988;SDS011;16089;59.952;10.818;2024-01-30T01:48:49;8.60;;;0.95;;
28988;SDS011;16089;59.952;10.818;2024-01-30T01:51:15;8.73;;;1.25;;
28988;SDS011;16089;59.952;10.818;2024-01-30T01:53:43;12.30;;;1.25;;
28988;SDS011;16089;59.952;10.818;2024-01-30T01:56:10;8.75;;;1.17;;
28988;SDS011;16089;59.952;10.818;2024-01-30T01:58:36;7.65;;;1.05;;
28988;SDS011;16089;59.952;10.818;2024-01-30T02:01:03;9.75;;;1.42;;
28988;SDS011;16089;59.952;10.818;2024-01-30T02:03:30;6.88;;;0.90;;
28988;SDS011;16089;59.952;10.818;2024-01-30T02:05:57;12.18;;;1.15;;
28988;SDS011;16089;59.952;10.818;2024-01-30T02:08:24;15.15;;;1.65;;
28988;SDS011;16089;59.952;10.818;2024-01-30T02:10:52;11.80;;;1.35;;
28988;SDS011;16089;59.952;10.818;2024-01-30T02:13:20;9.20;;;1.30;;
28988;SDS011;16089;59.952;10.818;2024-01-30T02:15:48;13.18;;;1.52;;
28988;SDS011;16089;59.952;10.818;2024-01-30T02:18:15;12.73;;;1.10;;
28988;SDS011;16089;59.952;10.818;2024-01-30T02:20:41;12.60;;;0.82;;
28988;SDS011;16089;59.952;10.818;2024-01-30T02:23:09;12.35;;;1.13;;
28988;SDS011;16089;59.952;10.818;2024-01-30T02:25:38;4.57;;;0.88;;
28988;SDS011;16089;59.952;10.818;2024-01-30T02:28:09;18.10;;;1.20;;
28988;SDS011;16089;59.952;10.818;2024-01-30T02:30:35;12.75;;;2.38;;
28988;SDS011;16089;59.952;10.818;2024-01-30T02:33:02;5.28;;;0.88;;
28988;SDS011;16089;59.952;10.818;2024-01-30T02:35:28;9.73;;;1.20;;
28988;SDS011;16089;59.952;10.818;2024-01-30T02:37:55;5.80;;;0.85;;
28988;SDS011;16089;59.952;10.818;2024-01-30T02:40:23;6.75;;;0.70;;
28988;SDS011;16089;59.952;10.818;2024-01-30T02:42:49;13.70;;;1.40;;
28988;SDS011;16089;59.952;10.818;2024-01-30T02:45:16;16.38;;;1.85;;
28988;SDS011;16089;59.952;10.818;2024-01-30T02:47:42;10.38;;;1.20;;
28988;SDS011;16089;59.952;10.818;2024-01-30T02:50:09;7.93;;;1.05;;
28988;SDS011;16089;59.952;10.818;2024-01-30T02:52:36;6.55;;;0.90;;
28988;SDS011;16089;59.952;10.818;2024-01-30T02:55:02;6.50;;;1.10;;
28988;SDS011;16089;59.952;10.818;2024-01-30T02:57:30;8.35;;;1.38;;
28988;SDS011;16089;59.952;10.818;2024-01-30T02:59:56;8.13;;;0.85;;
28988;SDS011;16089;59.952;10.818;2024-01-30T03:02:23;7.10;;;1.13;;
28988;SDS011;16089;59.952;10.818;2024-01-30T03:04:49;9.20;;;1.05;;
28988;SDS011;16089;59.952;10.818;2024-01-30T03:07:16;9.20;;;1.08;;
28988;SDS011;16089;59.952;10.818;2024-01-30T03:09:43;10.18;;;1.30;;
28988;SDS011;16089;59.952;10.818;2024-01-30T03:12:10;9.70;;;0.90;;
28988;SDS011;16089;59.952;10.818;2024-01-30T03:14:38;10.15;;;1.40;;
28988;SDS011;16089;59.952;10.818;2024-01-30T03:17:04;10.77;;;1.58;;
28988;SDS011;16089;59.952;10.818;2024-01-30T03:19:31;9.55;;;1.80;;
28988;SDS011;16089;59.952;10.818;2024-01-30T03:21:57;12.32;;;1.10;;
28988;SDS011;16089;59.952;10.818;2024-01-30T03:24:24;8.98;;;1.00;;
28988;SDS011;16089;59.952;10.818;2024-01-30T03:26:50;9.82;;;1.27;;
28988;SDS011;16089;59.952;10.818;2024-01-30T03:29:17;7.15;;;1.23;;
28988;SDS011;16089;59.952;10.818;2024-01-30T03:31:44;10.73;;;1.10;;
28988;SDS011;16089;59.952;10.818;2024-01-30T03:34:11;15.95;;;1.17;;
28988;SDS011;16089;59.952;10.818;2024-01-30T03:36:37;10.25;;;1.13;;
28988;SDS011;16089;59.952;10.818;2024-01-30T03:39:04;18.85;;;1.77;;
28988;SDS011;16089;59.952;10.818;2024-01-30T03:41:31;9.50;;;1.55;;
28988;SDS011;16089;59.952;10.818;2024-01-30T03:43:57;10.20;;;0.85;;
28988;SDS011;16089;59.952;10.818;2024-01-30T03:46:24;7.65;;;1.02;;
28988;SDS011;16089;59.952;10.818;2024-01-30T03:48:52;12.90;;;1.30;;
28988;SDS011;16089;59.952;10.818;2024-01-30T03:51:18;11.90;;;2.50;;
28988;SDS011;16089;59.952;10.818;2024-01-30T03:53:45;11.40;;;1.30;;
28988;SDS011;16089;59.952;10.818;2024-01-30T03:56:11;9.27;;;1.27;;
28988;SDS011;16089;59.952;10.818;2024-01-30T03:58:38;7.55;;;1.13;;
28988;SDS011;16089;59.952;10.818;2024-01-30T04:01:05;10.77;;;1.35;;
28988;SDS011;16089;59.952;10.818;2024-01-30T04:03:31;11.55;;;1.30;;
28988;SDS011;16089;59.952;10.818;2024-01-30T04:05:59;10.10;;;0.95;;
28988;SDS011;16089;59.952;10.818;2024-01-30T04:08:26;11.63;;;1.40;;
28988;SDS011;16089;59.952;10.818;2024-01-30T04:10:52;10.10;;;1.13;;
28988;SDS011;16089;59.952;10.818;2024-01-30T04:13:18;9.10;;;1.00;;
28988;SDS011;16089;59.952;10.818;2024-01-30T04:15:45;6.90;;;0.93;;
28988;SDS011;16089;59.952;10.818;2024-01-30T04:18:11;10.75;;;1.40;;
28988;SDS011;16089;59.952;10.818;2024-01-30T04:20:38;7.88;;;1.20;;
28988;SDS011;16089;59.952;10.818;2024-01-30T04:23:05;9.45;;;1.35;;
28988;SDS011;16089;59.952;10.818;2024-01-30T04:25:32;11.85;;;1.20;;
28988;SDS011;16089;59.952;10.818;2024-01-30T04:27:58;15.38;;;1.40;;
28988;SDS011;16089;59.952;10.818;2024-01-30T04:30:25;11.40;;;1.58;;
28988;SDS011;16089;59.952;10.818;2024-01-30T04:32:51;7.13;;;1.10;;
28988;SDS011;16089;59.952;10.818;2024-01-30T04:35:18;17.13;;;1.17;;
28988;SDS011;16089;59.952;10.818;2024-01-30T04:37:45;8.18;;;1.05;;
28988;SDS011;16089;59.952;10.818;2024-01-30T04:40:13;14.38;;;1.95;;
28988;SDS011;16089;59.952;10.818;2024-01-30T04:42:40;8.38;;;1.20;;
28988;SDS011;16089;59.952;10.818;2024-01-30T04:45:06;9.18;;;1.10;;
28988;SDS011;16089;59.952;10.818;2024-01-30T04:47:33;9.68;;;0.98;;
28988;SDS011;16089;59.952;10.818;2024-01-30T04:50:00;13.70;;;1.45;;
28988;SDS011;16089;59.952;10.818;2024-01-30T04:52:26;10.88;;;1.10;;
28988;SDS011;16089;59.952;10.818;2024-01-30T04:54:53;8.95;;;1.13;;
28988;SDS011;16089;59.952;10.818;2024-01-30T04:57:23;14.10;;;1.70;;
28988;SDS011;16089;59.952;10.818;2024-01-30T04:59:49;8.32;;;0.73;;
28988;SDS011;16089;59.952;10.818;2024-01-30T05:02:16;8.88;;;0.98;;
28988;SDS011;16089;59.952;10.818;2024-01-30T05:04:42;12.35;;;1.23;;
28988;SDS011;16089;59.952;10.818;2024-01-30T05:07:09;8.40;;;1.38;;
28988;SDS011;16089;59.952;10.818;2024-01-30T05:09:35;10.90;;;1.67;;
28988;SDS011;16089;59.952;10.818;2024-01-30T05:12:02;9.93;;;1.33;;
28988;SDS011;16089;59.952;10.818;2024-01-30T05:14:30;8.10;;;1.13;;
28988;SDS011;16089;59.952;10.818;2024-01-30T05:16:56;7.03;;;1.15;;
28988;SDS011;16089;59.952;10.818;2024-01-30T05:19:23;11.70;;;1.42;;
28988;SDS011;16089;59.952;10.818;2024-01-30T05:21:49;15.95;;;1.48;;
28988;SDS011;16089;59.952;10.818;2024-01-30T05:24:16;8.70;;;1.27;;
28988;SDS011;16089;59.952;10.818;2024-01-30T05:26:42;11.23;;;1.52;;
28988;SDS011;16089;59.952;10.818;2024-01-30T05:29:09;9.30;;;1.17;;
28988;SDS011;16089;59.952;10.818;2024-01-30T05:31:37;5.68;;;0.98;;
28988;SDS011;16089;59.952;10.818;2024-01-30T05:34:03;7.45;;;1.05;;
28988;SDS011;16089;59.952;10.818;2024-01-30T05:36:29;8.02;;;1.00;;
28988;SDS011;16089;59.952;10.818;2024-01-30T05:38:56;8.80;;;1.20;;
28988;SDS011;16089;59.952;10.818;2024-01-30T05:41:22;3.33;;;0.80;;
28988;SDS011;16089;59.952;10.818;2024-01-30T05:43:49;10.32;;;1.40;;
28988;SDS011;16089;59.952;10.818;2024-01-30T05:46:15;5.85;;;1.00;;
28988;SDS011;16089;59.952;10.818;2024-01-30T05:48:43;9.23;;;1.30;;
28988;SDS011;16089;59.952;10.818;2024-01-30T05:51:10;6.53;;;0.90;;
28988;SDS011;16089;59.952;10.818;2024-01-30T05:53:36;9.15;;;1.17;;
28988;SDS011;16089;59.952;10.818;2024-01-30T05:56:03;11.73;;;1.42;;
28988;SDS011;16089;59.952;10.818;2024-01-30T05:58:30;8.57;;;1.30;;
28988;SDS011;16089;59.952;10.818;2024-01-30T06:00:57;8.80;;;1.23;;
28988;SDS011;16089;59.952;10.818;2024-01-30T06:03:23;7.68;;;1.10;;
28988;SDS011;16089;59.952;10.818;2024-01-30T06:05:51;6.95;;;1.58;;
28988;SDS011;16089;59.952;10.818;2024-01-30T06:08:18;5.53;;;0.80;;
28988;SDS011;16089;59.952;10.818;2024-01-30T06:10:44;8.48;;;1.02;;
28988;SDS011;16089;59.952;10.818;2024-01-30T06:13:10;7.40;;;0.90;;
28988;SDS011;16089;59.952;10.818;2024-01-30T06:15:37;8.13;;;1.48;;
28988;SDS011;16089;59.952;10.818;2024-01-30T06:18:04;9.48;;;1.42;;
28988;SDS011;16089;59.952;10.818;2024-01-30T06:20:30;9.93;;;0.90;;
28988;SDS011;16089;59.952;10.818;2024-01-30T06:22:58;9.70;;;1.20;;
28988;SDS011;16089;59.952;10.818;2024-01-30T06:25:25;7.40;;;1.25;;
28988;SDS011;16089;59.952;10.818;2024-01-30T06:27:51;9.45;;;0.85;;
28988;SDS011;16089;59.952;10.818;2024-01-30T06:30:18;10.55;;;1.10;;
28988;SDS011;16089;59.952;10.818;2024-01-30T06:32:44;8.02;;;1.17;;
28988;SDS011;16089;59.952;10.818;2024-01-30T06:35:10;10.82;;;1.85;;
28988;SDS011;16089;59.952;10.818;2024-01-30T06:37:37;7.18;;;1.13;;
28988;SDS011;16089;59.952;10.818;2024-01-30T06:40:06;3.72;;;0.90;;
28988;SDS011;16089;59.952;10.818;2024-01-30T06:42:33;7.07;;;1.00;;
28988;SDS011;16089;59.952;10.818;2024-01-30T06:44:59;10.05;;;1.80;;
28988;SDS011;16089;59.952;10.818;2024-01-30T06:47:26;10.00;;;1.05;;
28988;SDS011;16089;59.952;10.818;2024-01-30T06:49:53;4.80;;;0.90;;
28988;SDS011;16089;59.952;10.818;2024-01-30T06:52:20;4.63;;;0.80;;
28988;SDS011;16089;59.952;10.818;2024-01-30T06:54:46;8.32;;;2.05;;
28988;SDS011;16089;59.952;10.818;2024-01-30T06:57:14;7.50;;;1.20;;
28988;SDS011;16089;59.952;10.818;2024-01-30T06:59:40;8.45;;;1.00;;
28988;SDS011;16089;59.952;10.818;2024-01-30T07:02:09;9.80;;;0.90;;
28988;SDS011;16089;59.952;10.818;2024-01-30T07:04:35;6.15;;;1.00;;
28988;SDS011;16089;59.952;10.818;2024-01-30T07:07:02;5.63;;;0.98;;
28988;SDS011;16089;59.952;10.818;2024-01-30T07:09:30;7.82;;;0.90;;
28988;SDS011;16089;59.952;10.818;2024-01-30T07:11:56;8.15;;;1.35;;
28988;SDS011;16089;59.952;10.818;2024-01-30T07:14:24;9.70;;;1.65;;
28988;SDS011;16089;59.952;10.818;2024-01-30T07:16:51;12.65;;;3.65;;
28988;SDS011;16089;59.952;10.818;2024-01-30T07:19:17;17.80;;;5.07;;
28988;SDS011;16089;59.952;10.818;2024-01-30T07:21:44;14.52;;;5.32;;
28988;SDS011;16089;59.952;10.818;2024-01-30T07:24:11;15.23;;;4.70;;
28988;SDS011;16089;59.952;10.818;2024-01-30T07:26:37;9.15;;;3.72;;
28988;SDS011;16089;59.952;10.818;2024-01-30T07:29:04;13.35;;;3.80;;
28988;SDS011;16089;59.952;10.818;2024-01-30T07:31:32;14.70;;;3.22;;
28988;SDS011;16089;59.952;10.818;2024-01-30T07:33:58;14.00;;;3.72;;
28988;SDS011;16089;59.952;10.818;2024-01-30T07:36:25;14.85;;;3.22;;
28988;SDS011;16089;59.952;10.818;2024-01-30T07:38:51;16.50;;;3.03;;
28988;SDS011;16089;59.952;10.818;2024-01-30T07:41:19;12.20;;;3.08;;
28988;SDS011;16089;59.952;10.818;2024-01-30T07:43:45;10.32;;;3.30;;
28988;SDS011;16089;59.952;10.818;2024-01-30T07:46:12;8.52;;;2.72;;
28988;SDS011;16089;59.952;10.818;2024-01-30T07:48:40;10.52;;;2.67;;
28988;SDS011;16089;59.952;10.818;2024-01-30T07:51:06;9.13;;;2.60;;
28988;SDS011;16089;59.952;10.818;2024-01-30T07:53:33;11.57;;;2.88;;
28988;SDS011;16089;59.952;10.818;2024-01-30T07:55:59;10.32;;;2.60;;
28988;SDS011;16089;59.952;10.818;2024-01-30T07:58:26;10.15;;;3.08;;
28988;SDS011;16089;59.952;10.818;2024-01-30T08:00:53;13.05;;;2.70;;
28988;SDS011;16089;59.952;10.818;2024-01-30T08:03:21;13.45;;;3.40;;
28988;SDS011;16089;59.952;10.818;2024-01-30T08:05:49;17.20;;;4.10;;
28988;SDS011;16089;59.952;10.818;2024-01-30T08:08:16;12.88;;;3.25;;
28988;SDS011;16089;59.952;10.818;2024-01-30T08:10:42;12.77;;;2.60;;
28988;SDS011;16089;59.952;10.818;2024-01-30T08:13:09;10.50;;;2.60;;
28988;SDS011;16089;59.952;10.818;2024-01-30T08:15:35;13.73;;;2.50;;
28988;SDS011;16089;59.952;10.818;2024-01-30T08:18:02;13.43;;;3.08;;
28988;SDS011;16089;59.952;10.818;2024-01-30T08:20:28;16.40;;;2.17;;
28988;SDS011;16089;59.952;10.818;2024-01-30T08:22:56;12.25;;;1.50;;
28988;SDS011;16089;59.952;10.818;2024-01-30T08:25:22;10.38;;;1.70;;
28988;SDS011;16089;59.952;10.818;2024-01-30T08:27:49;5.90;;;1.20;;
28988;SDS011;16089;59.952;10.818;2024-01-30T08:30:15;8.20;;;1.60;;
28988;SDS011;16089;59.952;10.818;2024-01-30T08:32:42;11.88;;;1.38;;
28988;SDS011;16089;59.952;10.818;2024-01-30T08:35:08;9.23;;;1.35;;
28988;SDS011;16089;59.952;10.818;2024-01-30T08:37:34;9.10;;;1.60;;
28988;SDS011;16089;59.952;10.818;2024-01-30T08:40:02;10.85;;;1.77;;
28988;SDS011;16089;59.952;10.818;2024-01-30T08:42:29;8.48;;;1.52;;
28988;SDS011;16089;59.952;10.818;2024-01-30T08:44:56;10.48;;;1.60;;
28988;SDS011;16089;59.952;10.818;2024-01-30T08:47:22;7.25;;;1.33;;
28988;SDS011;16089;59.952;10.818;2024-01-30T08:49:49;8.15;;;1.42;;
28988;SDS011;16089;59.952;10.818;2024-01-30T08:52:15;9.27;;;1.20;;
28988;SDS011;16089;59.952;10.818;2024-01-30T08:54:41;14.80;;;1.58;;
28988;SDS011;16089;59.952;10.818;2024-01-30T08:57:09;9.18;;;1.23;;
28988;SDS011;16089;59.952;10.818;2024-01-30T08:59:36;7.45;;;1.80;;
28988;SDS011;16089;59.952;10.818;2024-01-30T09:02:02;7.80;;;1.25;;
28988;SDS011;16089;59.952;10.818;2024-01-30T09:04:30;10.55;;;1.58;;
28988;SDS011;16089;59.952;10.818;2024-01-30T09:06:56;10.50;;;1.55;;
28988;SDS011;16089;59.952;10.818;2024-01-30T09:09:23;8.55;;;1.52;;
28988;SDS011;16089;59.952;10.818;2024-01-30T09:11:49;9.43;;;1.50;;
28988;SDS011;16089;59.952;10.818;2024-01-30T09:14:17;13.23;;;2.00;;
28988;SDS011;16089;59.952;10.818;2024-01-30T09:16:44;9.23;;;1.70;;
28988;SDS011;16089;59.952;10.818;2024-01-30T09:19:11;9.02;;;1.65;;
28988;SDS011;16089;59.952;10.818;2024-01-30T09:21:37;7.93;;;1.08;;
28988;SDS011;16089;59.952;10.818;2024-01-30T09:24:04;5.15;;;0.98;;
28988;SDS011;16089;59.952;10.818;2024-01-30T09:26:31;9.38;;;1.05;;
28988;SDS011;16089;59.952;10.818;2024-01-30T09:28:57;11.48;;;1.60;;
28988;SDS011;16089;59.952;10.818;2024-01-30T09:31:25;6.35;;;1.33;;
28988;SDS011;16089;59.952;10.818;2024-01-30T09:33:51;8.32;;;1.40;;
28988;SDS011;16089;59.952;10.818;2024-01-30T09:36:19;34.72;;;7.68;;
28988;SDS011;16089;59.952;10.818;2024-01-30T09:38:45;20.95;;;4.05;;
28988;SDS011;16089;59.952;10.818;2024-01-30T09:41:12;17.27;;;3.08;;
28988;SDS011;16089;59.952;10.818;2024-01-30T09:43:38;14.20;;;3.20;;
28988;SDS011;16089;59.952;10.818;2024-01-30T09:46:06;13.90;;;2.53;;
28988;SDS011;16089;59.952;10.818;2024-01-30T09:48:35;18.23;;;3.38;;
28988;SDS011;16089;59.952;10.818;2024-01-30T09:51:02;10.73;;;3.20;;
28988;SDS011;16089;59.952;10.818;2024-01-30T09:53:29;15.70;;;4.03;;
28988;SDS011;16089;59.952;10.818;2024-01-30T09:55:55;17.77;;;4.15;;
28988;SDS011;16089;59.952;10.818;2024-01-30T09:58:22;12.40;;;3.72;;
28988;SDS011;16089;59.952;10.818;2024-01-30T10:00:48;18.67;;;3.65;;
28988;SDS011;16089;59.952;10.818;2024-01-30T10:03:15;16.60;;;3.85;;
28988;SDS011;16089;59.952;10.818;2024-01-30T10:05:42;14.10;;;3.35;;
28988;SDS011;16089;59.952;10.818;2024-01-30T10:08:12;18.23;;;3.70;;
28988;SDS011;16089;59.952;10.818;2024-01-30T10:10:39;11.15;;;3.20;;
28988;SDS011;16089;59.952;10.818;2024-01-30T10:13:05;14.52;;;3.30;;
28988;SDS011;16089;59.952;10.818;2024-01-30T10:15:32;14.43;;;3.58;;
28988;SDS011;16089;59.952;10.818;2024-01-30T10:18:00;12.75;;;3.20;;
28988;SDS011;16089;59.952;10.818;2024-01-30T10:20:27;12.50;;;3.85;;
28988;SDS011;16089;59.952;10.818;2024-01-30T10:22:55;17.58;;;3.03;;
28988;SDS011;16089;59.952;10.818;2024-01-30T10:25:22;13.75;;;3.40;;
28988;SDS011;16089;59.952;10.818;2024-01-30T10:27:52;8.38;;;3.25;;
28988;SDS011;16089;59.952;10.818;2024-01-30T10:30:18;15.30;;;3.30;;
28988;SDS011;16089;59.952;10.818;2024-01-30T10:32:45;11.85;;;1.42;;
28988;SDS011;16089;59.952;10.818;2024-01-30T10:35:11;16.70;;;1.40;;
28988;SDS011;16089;59.952;10.818;2024-01-30T10:37:38;10.27;;;1.40;;
28988;SDS011;16089;59.952;10.818;2024-01-30T10:40:06;10.07;;;1.40;;
28988;SDS011;16089;59.952;10.818;2024-01-30T10:42:33;11.57;;;2.55;;
28988;SDS011;16089;59.952;10.818;2024-01-30T10:45:06;8.10;;;1.55;;
28988;SDS011;16089;59.952;10.818;2024-01-30T10:47:34;8.05;;;1.40;;
28988;SDS011;16089;59.952;10.818;2024-01-30T10:50:01;11.52;;;1.27;;
28988;SDS011;16089;59.952;10.818;2024-01-30T10:52:28;11.55;;;1.75;;
28988;SDS011;16089;59.952;10.818;2024-01-30T10:54:55;10.20;;;1.40;;
28988;SDS011;16089;59.952;10.818;2024-01-30T10:57:24;9.40;;;1.42;;
28988;SDS011;16089;59.952;10.818;2024-01-30T10:59:51;10.05;;;1.45;;
28988;SDS011;16089;59.952;10.818;2024-01-30T11:02:18;11.80;;;1.55;;
28988;SDS011;16089;59.952;10.818;2024-01-30T11:04:45;18.40;;;1.70;;
28988;SDS011;16089;59.952;10.818;2024-01-30T11:07:15;11.45;;;1.50;;
28988;SDS011;16089;59.952;10.818;2024-01-30T11:09:48;9.10;;;1.23;;
28988;SDS011;16089;59.952;10.818;2024-01-30T11:12:14;8.93;;;1.42;;
28988;SDS011;16089;59.952;10.818;2024-01-30T11:14:42;12.73;;;1.73;;
28988;SDS011;16089;59.952;10.818;2024-01-30T11:17:09;12.68;;;1.85;;
28988;SDS011;16089;59.952;10.818;2024-01-30T11:19:37;10.73;;;1.90;;
28988;SDS011;16089;59.952;10.818;2024-01-30T11:22:06;12.63;;;1.52;;
28988;SDS011;16089;59.952;10.818;2024-01-30T11:24:36;12.77;;;1.63;;
28988;SDS011;16089;59.952;10.818;2024-01-30T11:27:03;12.07;;;1.98;;
28988;SDS011;16089;59.952;10.818;2024-01-30T11:29:34;14.15;;;1.60;;
28988;SDS011;16089;59.952;10.818;2024-01-30T11:32:02;10.88;;;1.67;;
28988;SDS011;16089;59.952;10.818;2024-01-30T11:34:29;11.98;;;1.60;;
28988;SDS011;16089;59.952;10.818;2024-01-30T11:36:56;10.82;;;1.35;;
28988;SDS011;16089;59.952;10.818;2024-01-30T11:39:24;11.70;;;1.77;;
28988;SDS011;16089;59.952;10.818;2024-01-30T11:41:51;14.40;;;2.05;;
28988;SDS011;16089;59.952;10.818;2024-01-30T11:44:18;12.15;;;1.27;;
28988;SDS011;16089;59.952;10.818;2024-01-30T11:46:46;9.73;;;2.00;;
28988;SDS011;16089;59.952;10.818;2024-01-30T11:49:14;15.65;;;2.47;;
28988;SDS011;16089;59.952;10.818;2024-01-30T11:51:40;13.35;;;2.15;;
28988;SDS011;16089;59.952;10.818;2024-01-30T11:54:07;12.93;;;2.05;;
28988;SDS011;16089;59.952;10.818;2024-01-30T11:56:33;10.85;;;1.63;;
28988;SDS011;16089;59.952;10.818;2024-01-30T11:59:00;14.63;;;1.73;;
28988;SDS011;16089;59.952;10.818;2024-01-30T12:01:27;7.03;;;1.10;;
28988;SDS011;16089;59.952;10.818;2024-01-30T12:03:53;10.57;;;1.42;;
28988;SDS011;16089;59.952;10.818;2024-01-30T12:06:23;9.55;;;1.25;;
28988;SDS011;16089;59.952;10.818;2024-01-30T12:08:59;8.93;;;1.35;;
28988;SDS011;16089;59.952;10.818;2024-01-30T12:11:26;12.90;;;1.55;;
28988;SDS011;16089;59.952;10.818;2024-01-30T12:13:53;13.18;;;1.40;;
28988;SDS011;16089;59.952;10.818;2024-01-30T12:16:19;11.85;;;1.40;;
28988;SDS011;16089;59.952;10.818;2024-01-30T12:18:46;9.95;;;1.33;;
28988;SDS011;16089;59.952;10.818;2024-01-30T12:21:12;8.30;;;1.50;;
28988;SDS011;16089;59.952;10.818;2024-01-30T12:23:40;7.90;;;1.35;;
28988;SDS011;16089;59.952;10.818;2024-01-30T12:26:06;13.45;;;2.30;;
28988;SDS011;16089;59.952;10.818;2024-01-30T12:28:33;9.70;;;2.17;;
28988;SDS011;16089;59.952;10.818;2024-01-30T12:31:01;16.25;;;3.33;;
28988;SDS011;16089;59.952;10.818;2024-01-30T12:33:28;20.23;;;3.70;;
28988;SDS011;16089;59.952;10.818;2024-01-30T12:35:54;12.65;;;3.10;;
28988;SDS011;16089;59.952;10.818;2024-01-30T12:38:21;13.30;;;3.33;;
28988;SDS011;16089;59.952;10.818;2024-01-30T12:40:50;16.50;;;3.03;;
28988;SDS011;16089;59.952;10.818;2024-01-30T12:43:20;14.38;;;3.25;;
28988;SDS011;16089;59.952;10.818;2024-01-30T12:45:46;10.25;;;2.20;;
28988;SDS011;16089;59.952;10.818;2024-01-30T12:48:13;11.20;;;2.00;;
28988;SDS011;16089;59.952;10.818;2024-01-30T12:50:40;11.00;;;2.25;;
28988;SDS011;16089;59.952;10.818;2024-01-30T12:53:07;9.68;;;2.17;;
28988;SDS011;16089;59.952;10.818;2024-01-30T12:55:34;8.23;;;2.10;;
28988;SDS011;16089;59.952;10.818;2024-01-30T12:58:02;8.73;;;2.25;;
28988;SDS011;16089;59.952;10.818;2024-01-30T13:00:28;11.38;;;2.45;;
28988;SDS011;16089;59.952;10.818;2024-01-30T13:02:55;11.55;;;2.15;;
28988;SDS011;16089;59.952;10.818;2024-01-30T13:05:21;10.00;;;1.73;;
28988;SDS011;16089;59.952;10.818;2024-01-30T13:07:48;9.52;;;1.63;;
28988;SDS011;16089;59.952;10.818;2024-01-30T13:10:14;8.95;;;1.70;;
28988;SDS011;16089;59.952;10.818;2024-01-30T13:12:40;11.35;;;2.08;;
28988;SDS011;16089;59.952;10.818;2024-01-30T13:15:08;13.25;;;2.15;;
28988;SDS011;16089;59.952;10.818;2024-01-30T13:17:36;17.90;;;3.10;;
28988;SDS011;16089;59.952;10.818;2024-01-30T13:20:03;9.43;;;1.83;;
28988;SDS011;16089;59.952;10.818;2024-01-30T13:22:30;11.00;;;1.80;;
28988;SDS011;16089;59.952;10.818;2024-01-30T13:24:56;12.90;;;1.90;;
28988;SDS011;16089;59.952;10.818;2024-01-30T13:27:23;7.28;;;1.83;;
28988;SDS011;16089;59.952;10.818;2024-01-30T13:29:50;9.10;;;1.50;;
28988;SDS011;16089;59.952;10.818;2024-01-30T13:32:18;11.32;;;1.60;;
28988;SDS011;16089;59.952;10.818;2024-01-30T13:34:44;10.20;;;1.40;;
28988;SDS011;16089;59.952;10.818;2024-01-30T13:37:11;7.00;;;1.60;;
28988;SDS011;16089;59.952;10.818;2024-01-30T13:39:37;9.68;;;2.15;;
28988;SDS011;16089;59.952;10.818;2024-01-30T13:42:04;9.27;;;1.75;;
28988;SDS011;16089;59.952;10.818;2024-01-30T13:44:30;9.93;;;1.63;;
28988;SDS011;16089;59.952;10.818;2024-01-30T13:46:57;9.70;;;1.60;;
28988;SDS011;16089;59.952;10.818;2024-01-30T13:49:25;13.05;;;1.98;;
28988;SDS011;16089;59.952;10.818;2024-01-30T13:51:52;12.13;;;2.53;;
28988;SDS011;16089;59.952;10.818;2024-01-30T13:54:18;9.55;;;1.63;;
28988;SDS011;16089;59.952;10.818;2024-01-30T13:56:45;9.77;;;1.98;;
28988;SDS011;16089;59.952;10.818;2024-01-30T13:59:11;13.63;;;1.70;;
28988;SDS011;16089;59.952;10.818;2024-01-30T14:01:38;11.63;;;2.25;;
28988;SDS011;16089;59.952;10.818;2024-01-30T14:04:04;10.32;;;1.73;;
28988;SDS011;16089;59.952;10.818;2024-01-30T14:06:32;7.07;;;2.03;;
28988;SDS011;16089;59.952;10.818;2024-01-30T14:08:59;9.27;;;2.70;;
28988;SDS011;16089;59.952;10.818;2024-01-30T14:11:25;11.02;;;2.83;;
28988;SDS011;16089;59.952;10.818;2024-01-30T14:13:52;8.85;;;2.53;;
28988;SDS011;16089;59.952;10.818;2024-01-30T14:16:18;6.60;;;1.40;;
28988;SDS011;16089;59.952;10.818;2024-01-30T14:18:45;5.85;;;1.63;;
28988;SDS011;16089;59.952;10.818;2024-01-30T14:21:11;6.68;;;1.95;;
28988;SDS011;16089;59.952;10.818;2024-01-30T14:23:39;9.57;;;1.40;;
28988;SDS011;16089;59.952;10.818;2024-01-30T14:26:06;9.82;;;1.70;;